Eit Paloma — V2QI2 — position and weather

sailwx.info

Track history (hours):
 
Tides and Currents Weather Stations Pressure Air Temp Water Temp Dewpoint Dewpoint Depression Visibility Wind Speed Wind Dir Waves Ship Positions

Eit Paloma

Last reported at 2017-Nov-12 19:17 UTC. Time now 2017-Nov-20 22:50 UTC.
Position N 37°44' E 024°18'.
Warning: this ship's position is 8 days out of date.

Length 142 m; draft 5.5 m.

Type: Cargo ship. MMSI: 305789000.

Date/timePositionNaut miles runAvg speedWind from/ knotsBaromVisibWave heightAir tempDewpointWater temp
2017-Nov-12 19:17N 37°44' E 024°18'1012.8
2017-Nov-12 18:30N 37°37' E 024°09'812.4
2017-Nov-12 17:53N 37°36' E 023°59'512.0
2017-Nov-12 17:27N 37°36' E 023°53'512.2
2017-Nov-12 17:01N 37°38' E 023°47'611.7
2017-Nov-12 16:31N 37°42' E 023°41'612.4
2017-Nov-12 16:01N 37°48' E 023°37'612.4
2017-Nov-12 15:31N 37°53' E 023°34'1 2.5
2017-Nov-12 14:59N 37°55' E 023°34'0 0.0
2017-Nov-12 14:29N 37°55' E 023°34'0 0.0
2017-Nov-12 13:59N 37°55' E 023°34'0 0.0
2017-Nov-12 13:29N 37°55' E 023°34'0 0.0
2017-Nov-12 12:59N 37°55' E 023°34'0 0.0
2017-Nov-12 12:29N 37°55' E 023°34'0 0.0
2017-Nov-12 11:59N 37°55' E 023°34'0 0.0
2017-Nov-12 11:29N 37°55' E 023°34'0 0.0
2017-Nov-12 10:59N 37°55' E 023°34'0 0.0
2017-Nov-12 10:29N 37°55' E 023°34'0 0.0
2017-Nov-12 09:59N 37°55' E 023°34'0 0.0
2017-Nov-12 09:29N 37°55' E 023°34'0 0.0
2017-Nov-12 08:59N 37°55' E 023°34'0 0.0
2017-Nov-12 08:29N 37°55' E 023°34'0 0.0
2017-Nov-12 07:59N 37°55' E 023°34'0 0.0
2017-Nov-12 07:29N 37°55' E 023°34'0 0.0
2017-Nov-12 06:59N 37°55' E 023°34'0 0.0
2017-Nov-12 06:29N 37°55' E 023°34'0 0.0
2017-Nov-12 05:59N 37°55' E 023°34'0 0.0
2017-Nov-12 05:29N 37°55' E 023°34'0 0.0
2017-Nov-12 04:59N 37°55' E 023°34'0 0.0
2017-Nov-12 04:29N 37°55' E 023°34'0 0.1
2017-Nov-12 04:00N 37°55' E 023°34'3 6.2
2017-Nov-12 03:30N 37°52' E 023°36'5 9.5
2017-Nov-12 03:00N 37°49' E 023°40'510.7
2017-Nov-12 02:30N 37°44' E 023°43'510.7
2017-Nov-12 02:00N 37°39' E 023°46'510.7
2017-Nov-12 01:30N 37°34' E 023°45'610.8
2017-Nov-12 00:58N 37°28' E 023°44'13 2.3
2017-Nov-11 19:23N 37°15' E 023°45'1 1.2
2017-Nov-11 18:50N 37°15' E 023°44'0 1.1
2017-Nov-11 18:25N 37°15' E 023°44'1 1.2
2017-Nov-11 18:00N 37°14' E 023°43'1 1.4
2017-Nov-11 17:12N 37°14' E 023°42'0 1.2
2017-Nov-11 17:00N 37°13' E 023°42'371 8.1
2017-Nov-09 19:23N 37°50' E 015°57'513.3
2017-Nov-09 19:00N 37°51' E 015°51'713.3
2017-Nov-09 18:30N 37°54' E 015°43'612.4
2017-Nov-09 18:00N 37°58' E 015°37'612.9
2017-Nov-09 17:31N 38°04' E 015°35'713.9
2017-Nov-09 17:00N 38°11' E 015°35'713.0
2017-Nov-09 16:30N 38°16' E 015°40'611.3
2017-Nov-09 16:01N 38°22' E 015°38'612.8
2017-Nov-09 15:30N 38°26' E 015°32'612.9
2017-Nov-09 15:00N 38°31' E 015°26'612.6
2017-Nov-09 14:30N 38°35' E 015°20'612.5
2017-Nov-09 14:00N 38°40' E 015°15'612.6
2017-Nov-09 13:30N 38°44' E 015°09'712.7
2017-Nov-09 12:59N 38°48' E 015°02'  
2017-Nov-06 02:29N 43°12' E 004°24'0 0.0
2017-Nov-06 01:59N 43°12' E 004°24'0 0.0
2017-Nov-06 01:26N 43°12' E 004°24'0 0.0
2017-Nov-06 00:59N 43°12' E 004°24'0 0.0
2017-Nov-06 00:29N 43°12' E 004°24'0 0.0
2017-Nov-05 23:59N 43°12' E 004°24'0 0.0
2017-Nov-05 23:29N 43°12' E 004°24'0 0.1
2017-Nov-05 22:59N 43°12' E 004°24'0 0.0
2017-Nov-05 22:29N 43°12' E 004°24'0 0.0
2017-Nov-05 21:59N 43°12' E 004°24'0 0.0
2017-Nov-05 21:29N 43°12' E 004°24'0 0.0
2017-Nov-05 20:59N 43°12' E 004°24'0 0.0
2017-Nov-05 20:29N 43°12' E 004°24'0 0.0
2017-Nov-05 19:59N 43°12' E 004°24'0 0.0
2017-Nov-05 19:29N 43°12' E 004°24'0 0.0
2017-Nov-05 18:59N 43°12' E 004°24'0 0.0
2017-Nov-05 18:29N 43°12' E 004°24'0 0.0
2017-Nov-05 17:59N 43°12' E 004°24'0 0.0
2017-Nov-05 17:29N 43°12' E 004°24'0 0.0
2017-Nov-05 16:59N 43°12' E 004°24'0 0.0
2017-Nov-05 16:29N 43°12' E 004°24'0 0.0
2017-Nov-05 15:56N 43°12' E 004°24'0 0.0
2017-Nov-05 15:29N 43°12' E 004°24'0 0.0
2017-Nov-05 14:59N 43°12' E 004°24'0 0.0
2017-Nov-05 14:29N 43°12' E 004°24'0 0.0
2017-Nov-05 13:59N 43°12' E 004°24'0 0.0
2017-Nov-05 13:29N 43°12' E 004°24'0 0.0
2017-Nov-05 12:59N 43°12' E 004°24'0 0.0
2017-Nov-05 12:29N 43°12' E 004°24'0 0.0
2017-Nov-05 11:59N 43°12' E 004°24'0 0.0
2017-Nov-05 11:29N 43°12' E 004°24'0 0.0
2017-Nov-05 10:59N 43°12' E 004°24'0 0.0
2017-Nov-05 10:29N 43°12' E 004°24'0 0.0
2017-Nov-05 09:59N 43°12' E 004°24'0 0.0
2017-Nov-05 09:29N 43°12' E 004°24'0 0.0
2017-Nov-05 08:56N 43°12' E 004°24'0 0.0
2017-Nov-05 08:29N 43°12' E 004°24'0 0.0
2017-Nov-05 07:59N 43°12' E 004°24'0 0.1
2017-Nov-05 07:29N 43°12' E 004°24'0 0.0
2017-Nov-05 06:59N 43°12' E 004°24'0 0.0
2017-Nov-05 06:29N 43°12' E 004°24'0 0.1
2017-Nov-05 05:59N 43°12' E 004°24'0 0.1
2017-Nov-05 05:29N 43°12' E 004°24'0 0.1
2017-Nov-05 04:59N 43°12' E 004°24'0 0.0
2017-Nov-05 04:29N 43°12' E 004°24'0 0.0
2017-Nov-05 03:59N 43°12' E 004°24'0 0.0
2017-Nov-05 03:26N 43°12' E 004°24'0 0.0
2017-Nov-05 02:59N 43°12' E 004°24'0 0.0
2017-Nov-05 02:29N 43°12' E 004°23'0 0.0
2017-Nov-05 01:59N 43°12' E 004°23'0 0.1
2017-Nov-05 01:29N 43°12' E 004°24'0 0.0
2017-Nov-05 00:59N 43°12' E 004°24'0 0.2
2017-Nov-05 00:29N 43°12' E 004°24'0 0.1
2017-Nov-04 23:53N 43°13' E 004°24'0 0.0
2017-Nov-04 23:26N 43°13' E 004°24'0 0.1
2017-Nov-04 22:56N 43°13' E 004°24'0 0.0
2017-Nov-04 22:29N 43°13' E 004°24'0 0.1
2017-Nov-04 21:53N 43°13' E 004°23'0 0.0
2017-Nov-04 21:26N 43°13' E 004°23'0 0.0
2017-Nov-04 20:59N 43°12' E 004°23'0 0.0
2017-Nov-04 20:29N 43°12' E 004°23'0 0.0
2017-Nov-04 19:59N 43°13' E 004°23'0 0.0
2017-Nov-04 19:29N 43°12' E 004°23'0 0.0
2017-Nov-04 18:59N 43°13' E 004°23'0 0.0
2017-Nov-04 18:29N 43°13' E 004°23'0 0.0
2017-Nov-04 17:56N 43°13' E 004°23'0 0.0
2017-Nov-04 17:29N 43°13' E 004°23'0 0.0
2017-Nov-04 16:59N 43°13' E 004°23'0 0.0
2017-Nov-04 16:29N 43°13' E 004°23'0 0.0
2017-Nov-04 15:58N 43°12' E 004°23'0 0.0
2017-Nov-04 15:26N 43°12' E 004°24'0 0.1
2017-Nov-04 14:59N 43°12' E 004°24'0 0.0
2017-Nov-04 14:29N 43°12' E 004°24'0 0.0
2017-Nov-04 13:59N 43°12' E 004°24'0 0.0
2017-Nov-04 13:29N 43°12' E 004°24'0 0.0
2017-Nov-04 12:59N 43°12' E 004°24'0 0.0
2017-Nov-04 12:28N 43°12' E 004°24'0 0.0
2017-Nov-04 11:59N 43°12' E 004°24'0 0.0
2017-Nov-04 11:29N 43°12' E 004°24'0 0.0
2017-Nov-04 10:58N 43°12' E 004°24'0 0.0
2017-Nov-04 10:28N 43°12' E 004°24'0 0.0
2017-Nov-04 09:59N 43°12' E 004°24'0 0.0
2017-Nov-04 09:28N 43°12' E 004°24'0 0.0
2017-Nov-04 08:59N 43°12' E 004°24'0 0.0
2017-Nov-04 08:29N 43°12' E 004°24'0 0.0
2017-Nov-04 07:58N 43°12' E 004°24'0 0.0
2017-Nov-04 07:28N 43°12' E 004°24'0 0.0
2017-Nov-04 06:58N 43°12' E 004°24'0 0.1
2017-Nov-04 06:28N 43°12' E 004°24'0 0.0
2017-Nov-04 05:58N 43°12' E 004°24'0 0.0
2017-Nov-04 05:28N 43°12' E 004°24'0 0.1
2017-Nov-04 04:59N 43°12' E 004°24'0 0.0
2017-Nov-04 04:29N 43°12' E 004°24'0 0.0
2017-Nov-04 03:59N 43°12' E 004°24'0 0.0
2017-Nov-04 03:29N 43°12' E 004°24'0 0.0
2017-Nov-04 02:58N 43°12' E 004°24'0 0.0
2017-Nov-04 02:29N 43°12' E 004°24'0 0.0
2017-Nov-04 01:58N 43°12' E 004°24'0 0.0
2017-Nov-04 01:28N 43°12' E 004°24'0 0.0
2017-Nov-04 00:59N 43°12' E 004°24'0 0.0
2017-Nov-04 00:29N 43°12' E 004°24'0 0.0
2017-Nov-03 23:58N 43°12' E 004°24'0 0.0
2017-Nov-03 23:29N 43°12' E 004°24'0 0.0
2017-Nov-03 22:58N 43°12' E 004°24'0 0.0
2017-Nov-03 22:28N 43°12' E 004°24'0 0.0
2017-Nov-03 21:58N 43°12' E 004°24'0 0.0
2017-Nov-03 21:28N 43°12' E 004°24'0 0.0
2017-Nov-03 20:55N 43°12' E 004°24'0 0.0
2017-Nov-03 20:29N 43°12' E 004°24'0 0.0
2017-Nov-03 19:55N 43°12' E 004°24'0 0.0
2017-Nov-03 19:28N 43°12' E 004°24'0 0.0
2017-Nov-03 18:58N 43°12' E 004°24'0 0.0
2017-Nov-03 18:29N 43°12' E 004°24'0 0.0
2017-Nov-03 17:56N 43°12' E 004°24'0 0.0
2017-Nov-03 17:28N 43°12' E 004°24'0 0.0
2017-Nov-03 16:55N 43°12' E 004°24'0 0.0
2017-Nov-03 16:28N 43°12' E 004°24'0 0.0
2017-Nov-03 15:58N 43°12' E 004°24'0 0.0
2017-Nov-03 15:28N 43°12' E 004°24'0 0.0
2017-Nov-03 14:59N 43°12' E 004°24'0 0.0
2017-Nov-03 14:28N 43°12' E 004°24'0 0.0
2017-Nov-03 13:58N 43°12' E 004°24'0 0.0
2017-Nov-03 13:28N 43°12' E 004°24'0 0.0
2017-Nov-03 12:58N 43°12' E 004°24'0 0.0
2017-Nov-03 12:28N 43°12' E 004°24'0 0.0
2017-Nov-03 11:58N 43°12' E 004°24'0 0.0
2017-Nov-03 11:28N 43°12' E 004°24'0 0.0
2017-Nov-03 10:59N 43°12' E 004°24'0 0.0
2017-Nov-03 10:28N 43°12' E 004°24'0 0.0
2017-Nov-03 09:59N 43°12' E 004°24'0 0.0
2017-Nov-03 09:29N 43°12' E 004°24'0 0.0
2017-Nov-03 08:56N 43°12' E 004°24'0 0.0
2017-Nov-03 08:28N 43°12' E 004°24'0 0.0
2017-Nov-03 07:59N 43°12' E 004°24'0 0.0
2017-Nov-03 07:28N 43°12' E 004°24'0 0.0
2017-Nov-03 06:58N 43°12' E 004°24'0 0.0
2017-Nov-03 06:29N 43°12' E 004°24'0 0.0
2017-Nov-03 05:58N 43°12' E 004°24'0 0.0
2017-Nov-03 05:28N 43°12' E 004°24'0 0.0
2017-Nov-03 04:59N 43°12' E 004°24'0 0.0
2017-Nov-03 04:28N 43°12' E 004°24'0 0.0
2017-Nov-03 03:59N 43°12' E 004°24'0 0.0
2017-Nov-03 03:28N 43°12' E 004°24'0 0.0
2017-Nov-03 02:58N 43°12' E 004°24'0 0.0
2017-Nov-03 02:25N 43°12' E 004°24'0 0.0
2017-Nov-03 01:58N 43°12' E 004°24'0 0.1
2017-Nov-03 01:28N 43°12' E 004°24'0 0.0
2017-Nov-03 00:58N 43°12' E 004°24'0 0.0
2017-Nov-03 00:28N 43°12' E 004°24'0 0.0
2017-Nov-02 23:56N 43°12' E 004°24'0 0.0
2017-Nov-02 23:29N 43°12' E 004°24'0 0.0
2017-Nov-02 22:58N 43°12' E 004°24'0 0.0
2017-Nov-02 22:28N 43°12' E 004°24'0 0.0
2017-Nov-02 21:58N 43°12' E 004°24'0 0.0
2017-Nov-02 21:28N 43°12' E 004°24'0 0.0
2017-Nov-02 20:59N 43°12' E 004°24'0 0.0
2017-Nov-02 20:28N 43°12' E 004°24'0 0.0
2017-Nov-02 19:55N 43°12' E 004°24'0 0.0
2017-Nov-02 19:29N 43°12' E 004°24'  
Track history (hours):
 
Tides and Currents Weather Stations Pressure Air Temp Water Temp Dewpoint Dewpoint Depression Visibility Wind Speed Wind Dir Waves Ship Positions

Eit Paloma

Last reported at 2017-Nov-12 19:17 UTC. Time now 2017-Nov-20 22:50 UTC.
Position N 37°44' E 024°18'.
Warning: this ship's position is 8 days out of date.

Length 142 m; draft 5.5 m.

Type: Cargo ship. MMSI: 305789000.

Date/timePositionNaut miles runAvg speedWind from/ knotsBaromVisibWave heightAir tempDewpointWater temp
2017-Nov-12 19:17N 37°44' E 024°18'1012.8
2017-Nov-12 18:30N 37°37' E 024°09'812.4
2017-Nov-12 17:53N 37°36' E 023°59'512.0
2017-Nov-12 17:27N 37°36' E 023°53'512.2
2017-Nov-12 17:01N 37°38' E 023°47'611.7
2017-Nov-12 16:31N 37°42' E 023°41'612.4
2017-Nov-12 16:01N 37°48' E 023°37'612.4
2017-Nov-12 15:31N 37°53' E 023°34'1 2.5
2017-Nov-12 14:59N 37°55' E 023°34'0 0.0
2017-Nov-12 14:29N 37°55' E 023°34'0 0.0
2017-Nov-12 13:59N 37°55' E 023°34'0 0.0
2017-Nov-12 13:29N 37°55' E 023°34'0 0.0
2017-Nov-12 12:59N 37°55' E 023°34'0 0.0
2017-Nov-12 12:29N 37°55' E 023°34'0 0.0
2017-Nov-12 11:59N 37°55' E 023°34'0 0.0
2017-Nov-12 11:29N 37°55' E 023°34'0 0.0
2017-Nov-12 10:59N 37°55' E 023°34'0 0.0
2017-Nov-12 10:29N 37°55' E 023°34'0 0.0
2017-Nov-12 09:59N 37°55' E 023°34'0 0.0
2017-Nov-12 09:29N 37°55' E 023°34'0 0.0
2017-Nov-12 08:59N 37°55' E 023°34'0 0.0
2017-Nov-12 08:29N 37°55' E 023°34'0 0.0
2017-Nov-12 07:59N 37°55' E 023°34'0 0.0
2017-Nov-12 07:29N 37°55' E 023°34'0 0.0
2017-Nov-12 06:59N 37°55' E 023°34'0 0.0
2017-Nov-12 06:29N 37°55' E 023°34'0 0.0
2017-Nov-12 05:59N 37°55' E 023°34'0 0.0
2017-Nov-12 05:29N 37°55' E 023°34'0 0.0
2017-Nov-12 04:59N 37°55' E 023°34'0 0.0
2017-Nov-12 04:29N 37°55' E 023°34'0 0.1
2017-Nov-12 04:00N 37°55' E 023°34'3 6.2
2017-Nov-12 03:30N 37°52' E 023°36'5 9.5
2017-Nov-12 03:00N 37°49' E 023°40'510.7
2017-Nov-12 02:30N 37°44' E 023°43'510.7
2017-Nov-12 02:00N 37°39' E 023°46'510.7
2017-Nov-12 01:30N 37°34' E 023°45'610.8
2017-Nov-12 00:58N 37°28' E 023°44'13 2.3
2017-Nov-11 19:23N 37°15' E 023°45'1 1.2
2017-Nov-11 18:50N 37°15' E 023°44'0 1.1
2017-Nov-11 18:25N 37°15' E 023°44'1 1.2
2017-Nov-11 18:00N 37°14' E 023°43'1 1.4
2017-Nov-11 17:12N 37°14' E 023°42'0 1.2
2017-Nov-11 17:00N 37°13' E 023°42'371 8.1
2017-Nov-09 19:23N 37°50' E 015°57'513.3
2017-Nov-09 19:00N 37°51' E 015°51'713.3
2017-Nov-09 18:30N 37°54' E 015°43'612.4
2017-Nov-09 18:00N 37°58' E 015°37'612.9
2017-Nov-09 17:31N 38°04' E 015°35'713.9
2017-Nov-09 17:00N 38°11' E 015°35'713.0
2017-Nov-09 16:30N 38°16' E 015°40'611.3
2017-Nov-09 16:01N 38°22' E 015°38'612.8
2017-Nov-09 15:30N 38°26' E 015°32'612.9
2017-Nov-09 15:00N 38°31' E 015°26'612.6
2017-Nov-09 14:30N 38°35' E 015°20'612.5
2017-Nov-09 14:00N 38°40' E 015°15'612.6
2017-Nov-09 13:30N 38°44' E 015°09'712.7
2017-Nov-09 12:59N 38°48' E 015°02'  
2017-Nov-06 02:29N 43°12' E 004°24'0 0.0
2017-Nov-06 01:59N 43°12' E 004°24'0 0.0
2017-Nov-06 01:26N 43°12' E 004°24'0 0.0
2017-Nov-06 00:59N 43°12' E 004°24'0 0.0
2017-Nov-06 00:29N 43°12' E 004°24'0 0.0
2017-Nov-05 23:59N 43°12' E 004°24'0 0.0
2017-Nov-05 23:29N 43°12' E 004°24'0 0.1
2017-Nov-05 22:59N 43°12' E 004°24'0 0.0
2017-Nov-05 22:29N 43°12' E 004°24'0 0.0
2017-Nov-05 21:59N 43°12' E 004°24'0 0.0
2017-Nov-05 21:29N 43°12' E 004°24'0 0.0
2017-Nov-05 20:59N 43°12' E 004°24'0 0.0
2017-Nov-05 20:29N 43°12' E 004°24'0 0.0
2017-Nov-05 19:59N 43°12' E 004°24'0 0.0
2017-Nov-05 19:29N 43°12' E 004°24'0 0.0
2017-Nov-05 18:59N 43°12' E 004°24'0 0.0
2017-Nov-05 18:29N 43°12' E 004°24'0 0.0
2017-Nov-05 17:59N 43°12' E 004°24'0 0.0
2017-Nov-05 17:29N 43°12' E 004°24'0 0.0
2017-Nov-05 16:59N 43°12' E 004°24'0 0.0
2017-Nov-05 16:29N 43°12' E 004°24'0 0.0
2017-Nov-05 15:56N 43°12' E 004°24'0 0.0
2017-Nov-05 15:29N 43°12' E 004°24'0 0.0
2017-Nov-05 14:59N 43°12' E 004°24'0 0.0
2017-Nov-05 14:29N 43°12' E 004°24'0 0.0
2017-Nov-05 13:59N 43°12' E 004°24'0 0.0
2017-Nov-05 13:29N 43°12' E 004°24'0 0.0
2017-Nov-05 12:59N 43°12' E 004°24'0 0.0
2017-Nov-05 12:29N 43°12' E 004°24'0 0.0
2017-Nov-05 11:59N 43°12' E 004°24'0 0.0
2017-Nov-05 11:29N 43°12' E 004°24'0 0.0
2017-Nov-05 10:59N 43°12' E 004°24'0 0.0
2017-Nov-05 10:29N 43°12' E 004°24'0 0.0
2017-Nov-05 09:59N 43°12' E 004°24'0 0.0
2017-Nov-05 09:29N 43°12' E 004°24'0 0.0
2017-Nov-05 08:56N 43°12' E 004°24'0 0.0
2017-Nov-05 08:29N 43°12' E 004°24'0 0.0
2017-Nov-05 07:59N 43°12' E 004°24'0 0.1
2017-Nov-05 07:29N 43°12' E 004°24'0 0.0
2017-Nov-05 06:59N 43°12' E 004°24'0 0.0
2017-Nov-05 06:29N 43°12' E 004°24'0 0.1
2017-Nov-05 05:59N 43°12' E 004°24'0 0.1
2017-Nov-05 05:29N 43°12' E 004°24'0 0.1
2017-Nov-05 04:59N 43°12' E 004°24'0 0.0
2017-Nov-05 04:29N 43°12' E 004°24'0 0.0
2017-Nov-05 03:59N 43°12' E 004°24'0 0.0
2017-Nov-05 03:26N 43°12' E 004°24'0 0.0
2017-Nov-05 02:59N 43°12' E 004°24'0 0.0
2017-Nov-05 02:29N 43°12' E 004°23'0 0.0
2017-Nov-05 01:59N 43°12' E 004°23'0 0.1
2017-Nov-05 01:29N 43°12' E 004°24'0 0.0
2017-Nov-05 00:59N 43°12' E 004°24'0 0.2
2017-Nov-05 00:29N 43°12' E 004°24'0 0.1
2017-Nov-04 23:53N 43°13' E 004°24'0 0.0
2017-Nov-04 23:26N 43°13' E 004°24'0 0.1
2017-Nov-04 22:56N 43°13' E 004°24'0 0.0
2017-Nov-04 22:29N 43°13' E 004°24'0 0.1
2017-Nov-04 21:53N 43°13' E 004°23'0 0.0
2017-Nov-04 21:26N 43°13' E 004°23'0 0.0
2017-Nov-04 20:59N 43°12' E 004°23'0 0.0
2017-Nov-04 20:29N 43°12' E 004°23'0 0.0
2017-Nov-04 19:59N 43°13' E 004°23'0 0.0
2017-Nov-04 19:29N 43°12' E 004°23'0 0.0
2017-Nov-04 18:59N 43°13' E 004°23'0 0.0
2017-Nov-04 18:29N 43°13' E 004°23'0 0.0
2017-Nov-04 17:56N 43°13' E 004°23'0 0.0
2017-Nov-04 17:29N 43°13' E 004°23'0 0.0
2017-Nov-04 16:59N 43°13' E 004°23'0 0.0
2017-Nov-04 16:29N 43°13' E 004°23'0 0.0
2017-Nov-04 15:58N 43°12' E 004°23'0 0.0
2017-Nov-04 15:26N 43°12' E 004°24'0 0.1
2017-Nov-04 14:59N 43°12' E 004°24'0 0.0
2017-Nov-04 14:29N 43°12' E 004°24'0 0.0
2017-Nov-04 13:59N 43°12' E 004°24'0 0.0
2017-Nov-04 13:29N 43°12' E 004°24'0 0.0
2017-Nov-04 12:59N 43°12' E 004°24'0 0.0
2017-Nov-04 12:28N 43°12' E 004°24'0 0.0
2017-Nov-04 11:59N 43°12' E 004°24'0 0.0
2017-Nov-04 11:29N 43°12' E 004°24'0 0.0
2017-Nov-04 10:58N 43°12' E 004°24'0 0.0
2017-Nov-04 10:28N 43°12' E 004°24'0 0.0
2017-Nov-04 09:59N 43°12' E 004°24'0 0.0
2017-Nov-04 09:28N 43°12' E 004°24'0 0.0
2017-Nov-04 08:59N 43°12' E 004°24'0 0.0
2017-Nov-04 08:29N 43°12' E 004°24'0 0.0
2017-Nov-04 07:58N 43°12' E 004°24'0 0.0
2017-Nov-04 07:28N 43°12' E 004°24'0 0.0
2017-Nov-04 06:58N 43°12' E 004°24'0 0.1
2017-Nov-04 06:28N 43°12' E 004°24'0 0.0
2017-Nov-04 05:58N 43°12' E 004°24'0 0.0
2017-Nov-04 05:28N 43°12' E 004°24'0 0.1
2017-Nov-04 04:59N 43°12' E 004°24'0 0.0
2017-Nov-04 04:29N 43°12' E 004°24'0 0.0
2017-Nov-04 03:59N 43°12' E 004°24'0 0.0
2017-Nov-04 03:29N 43°12' E 004°24'0 0.0
2017-Nov-04 02:58N 43°12' E 004°24'0 0.0
2017-Nov-04 02:29N 43°12' E 004°24'0 0.0
2017-Nov-04 01:58N 43°12' E 004°24'0 0.0
2017-Nov-04 01:28N 43°12' E 004°24'0 0.0
2017-Nov-04 00:59N 43°12' E 004°24'0 0.0
2017-Nov-04 00:29N 43°12' E 004°24'0 0.0
2017-Nov-03 23:58N 43°12' E 004°24'0 0.0
2017-Nov-03 23:29N 43°12' E 004°24'0 0.0
2017-Nov-03 22:58N 43°12' E 004°24'0 0.0
2017-Nov-03 22:28N 43°12' E 004°24'0 0.0
2017-Nov-03 21:58N 43°12' E 004°24'0 0.0
2017-Nov-03 21:28N 43°12' E 004°24'0 0.0
2017-Nov-03 20:55N 43°12' E 004°24'0 0.0
2017-Nov-03 20:29N 43°12' E 004°24'0 0.0
2017-Nov-03 19:55N 43°12' E 004°24'0 0.0
2017-Nov-03 19:28N 43°12' E 004°24'0 0.0
2017-Nov-03 18:58N 43°12' E 004°24'0 0.0
2017-Nov-03 18:29N 43°12' E 004°24'0 0.0
2017-Nov-03 17:56N 43°12' E 004°24'0 0.0
2017-Nov-03 17:28N 43°12' E 004°24'0 0.0
2017-Nov-03 16:55N 43°12' E 004°24'0 0.0
2017-Nov-03 16:28N 43°12' E 004°24'0 0.0
2017-Nov-03 15:58N 43°12' E 004°24'0 0.0
2017-Nov-03 15:28N 43°12' E 004°24'0 0.0
2017-Nov-03 14:59N 43°12' E 004°24'0 0.0
2017-Nov-03 14:28N 43°12' E 004°24'0 0.0
2017-Nov-03 13:58N 43°12' E 004°24'0 0.0
2017-Nov-03 13:28N 43°12' E 004°24'0 0.0
2017-Nov-03 12:58N 43°12' E 004°24'0 0.0
2017-Nov-03 12:28N 43°12' E 004°24'0 0.0
2017-Nov-03 11:58N 43°12' E 004°24'0 0.0
2017-Nov-03 11:28N 43°12' E 004°24'0 0.0
2017-Nov-03 10:59N 43°12' E 004°24'0 0.0
2017-Nov-03 10:28N 43°12' E 004°24'0 0.0
2017-Nov-03 09:59N 43°12' E 004°24'0 0.0
2017-Nov-03 09:29N 43°12' E 004°24'0 0.0
2017-Nov-03 08:56N 43°12' E 004°24'0 0.0
2017-Nov-03 08:28N 43°12' E 004°24'0 0.0
2017-Nov-03 07:59N 43°12' E 004°24'0 0.0
2017-Nov-03 07:28N 43°12' E 004°24'0 0.0
2017-Nov-03 06:58N 43°12' E 004°24'0 0.0
2017-Nov-03 06:29N 43°12' E 004°24'0 0.0
2017-Nov-03 05:58N 43°12' E 004°24'0 0.0
2017-Nov-03 05:28N 43°12' E 004°24'0 0.0
2017-Nov-03 04:59N 43°12' E 004°24'0 0.0
2017-Nov-03 04:28N 43°12' E 004°24'0 0.0
2017-Nov-03 03:59N 43°12' E 004°24'0 0.0
2017-Nov-03 03:28N 43°12' E 004°24'0 0.0
2017-Nov-03 02:58N 43°12' E 004°24'0 0.0
2017-Nov-03 02:25N 43°12' E 004°24'0 0.0
2017-Nov-03 01:58N 43°12' E 004°24'0 0.1
2017-Nov-03 01:28N 43°12' E 004°24'0 0.0
2017-Nov-03 00:58N 43°12' E 004°24'0 0.0
2017-Nov-03 00:28N 43°12' E 004°24'0 0.0
2017-Nov-02 23:56N 43°12' E 004°24'0 0.0
2017-Nov-02 23:29N 43°12' E 004°24'0 0.0
2017-Nov-02 22:58N 43°12' E 004°24'0 0.0
2017-Nov-02 22:28N 43°12' E 004°24'0 0.0
2017-Nov-02 21:58N 43°12' E 004°24'0 0.0
2017-Nov-02 21:28N 43°12' E 004°24'0 0.0
2017-Nov-02 20:59N 43°12' E 004°24'0 0.0
2017-Nov-02 20:28N 43°12' E 004°24'0 0.0
2017-Nov-02 19:55N 43°12' E 004°24'0 0.0
2017-Nov-02 19:29N 43°12' E 004°24'  

Dump ship's entire track history